AAL2988 KORD-KDFW
Flight info
| Callsign | AAL2988 |
|---|---|
| Flight time | N/A |
| Altitude | 32000 |
| Route | ACITO ADELL ARLYN STL RZC FSM RRNET BRDJE5 |
| Aircraft | A321/M-SDE3FGHIRWY/LB1 |
Departure
| Time | 2026-05-07 22:50 |
|---|---|
| Airport | Chicago O'Hare International Airport (KORD) |
Arrival
| Time | N/A |
|---|---|
| Airport | Dallas Fort Worth International Airport (KDFW) |
| Time | Latitude | Longitude | Altitude | Speed | Heading |
|---|---|---|---|---|---|
| 2026-05-07 22:24 | 41.97382 | -87.89670 | 669 ft | 0 kts | 343° |
| 2026-05-07 22:41 | 41.97377 | -87.89668 | 666 ft | 3 kts | 343° |
| 2026-05-07 22:41 | 41.97355 | -87.89659 | 667 ft | 3 kts | 343° |
| 2026-05-07 22:42 | 41.97336 | -87.89651 | 666 ft | 3 kts | 327° |
| 2026-05-07 22:42 | 41.97323 | -87.89632 | 667 ft | 3 kts | 274° |
| 2026-05-07 22:42 | 41.97329 | -87.89607 | 666 ft | 3 kts | 229° |
| 2026-05-07 22:42 | 41.97344 | -87.89587 | 666 ft | 1 kts | 221° |
| 2026-05-07 22:43 | 41.97344 | -87.89586 | 666 ft | 0 kts | 221° |
| 2026-05-07 22:44 | 41.97343 | -87.89587 | 666 ft | 0 kts | 221° |
| 2026-05-07 22:45 | 41.97342 | -87.89589 | 666 ft | 0 kts | 222° |
| 2026-05-07 22:45 | 41.97315 | -87.89611 | 667 ft | 6 kts | 193° |
| 2026-05-07 22:46 | 41.97270 | -87.89584 | 669 ft | 8 kts | 147° |
| 2026-05-07 22:46 | 41.97219 | -87.89536 | 669 ft | 10 kts | 139° |
| 2026-05-07 22:46 | 41.97194 | -87.89447 | 669 ft | 11 kts | 89° |
| 2026-05-07 22:46 | 41.97193 | -87.89328 | 669 ft | 15 kts | 91° |
| 2026-05-07 22:47 | 41.97194 | -87.89172 | 669 ft | 18 kts | 90° |
| 2026-05-07 22:47 | 41.97195 | -87.88995 | 669 ft | 20 kts | 90° |
| 2026-05-07 22:47 | 41.97195 | -87.88799 | 669 ft | 22 kts | 90° |
| 2026-05-07 22:47 | 41.97196 | -87.88583 | 669 ft | 23 kts | 90° |
| 2026-05-07 22:48 | 41.97196 | -87.88356 | 669 ft | 25 kts | 90° |
| 2026-05-07 22:48 | 41.97195 | -87.88143 | 669 ft | 18 kts | 90° |
| 2026-05-07 22:48 | 41.97161 | -87.88039 | 669 ft | 12 kts | 156° |
| 2026-05-07 22:48 | 41.97068 | -87.88033 | 670 ft | 14 kts | 181° |
| 2026-05-07 22:49 | 41.96977 | -87.88030 | 672 ft | 11 kts | 178° |
| 2026-05-07 22:49 | 41.96884 | -87.88103 | 671 ft | 35 kts | 221° |
| 2026-05-07 22:49 | 41.96503 | -87.88556 | 671 ft | 108 kts | 221° |
| 2026-05-07 22:49 | 41.95789 | -87.89408 | 747 ft | 158 kts | 222° |
| 2026-05-07 22:50 | 41.94961 | -87.90406 | 1380 ft | 163 kts | 223° |
| 2026-05-07 22:50 | 41.94116 | -87.91406 | 2217 ft | 161 kts | 226° |
| 2026-05-07 22:50 | 41.93244 | -87.92425 | 2708 ft | 176 kts | 225° |
| 2026-05-07 22:50 | 41.92267 | -87.93591 | 3001 ft | 198 kts | 224° |
| 2026-05-07 22:51 | 41.91042 | -87.94589 | 3325 ft | 210 kts | 213° |
| 2026-05-07 22:51 | 41.89710 | -87.95563 | 3595 ft | 231 kts | 206° |
| 2026-05-07 22:51 | 41.88115 | -87.96328 | 3905 ft | 253 kts | 203° |
| 2026-05-07 22:51 | 41.86422 | -87.97122 | 4621 ft | 261 kts | 204° |
| 2026-05-07 22:52 | 41.84699 | -87.97923 | 5417 ft | 264 kts | 204° |
| 2026-05-07 22:52 | 41.82948 | -87.98728 | 6244 ft | 267 kts | 204° |
| 2026-05-07 22:52 | 41.81204 | -87.99525 | 7000 ft | 270 kts | 204° |
| 2026-05-07 22:52 | 41.79414 | -88.00344 | 7796 ft | 273 kts | 205° |
| 2026-05-07 22:53 | 41.77603 | -88.01174 | 8573 ft | 277 kts | 205° |
| 2026-05-07 22:53 | 41.75775 | -88.02013 | 9360 ft | 280 kts | 206° |
| 2026-05-07 22:53 | 41.73917 | -88.02864 | 10078 ft | 285 kts | 206° |
| 2026-05-07 22:53 | 41.71972 | -88.03761 | 10321 ft | 307 kts | 206° |
| 2026-05-07 22:54 | 41.69880 | -88.04732 | 10471 ft | 329 kts | 205° |
| 2026-05-07 22:54 | 41.67652 | -88.05756 | 10727 ft | 345 kts | 205° |
| 2026-05-07 22:54 | 41.65360 | -88.06792 | 11297 ft | 350 kts | 205° |
| 2026-05-07 22:54 | 41.63044 | -88.07830 | 11959 ft | 352 kts | 205° |
| 2026-05-07 22:55 | 41.60710 | -88.08876 | 12656 ft | 354 kts | 205° |
| 2026-05-07 22:55 | 41.58363 | -88.09930 | 13310 ft | 357 kts | 205° |
| 2026-05-07 22:55 | 41.56000 | -88.10997 | 13917 ft | 360 kts | 205° |
| 2026-05-07 22:55 | 41.53615 | -88.12078 | 14457 ft | 363 kts | 205° |
| 2026-05-07 22:56 | 41.51217 | -88.13164 | 15028 ft | 366 kts | 205° |
| 2026-05-07 22:56 | 41.48795 | -88.14259 | 15583 ft | 369 kts | 205° |
| 2026-05-07 22:56 | 41.46357 | -88.15363 | 16162 ft | 372 kts | 205° |
| 2026-05-07 22:56 | 41.43893 | -88.16479 | 16721 ft | 375 kts | 205° |
| 2026-05-07 22:57 | 41.41412 | -88.17603 | 17270 ft | 379 kts | 205° |
| 2026-05-07 22:57 | 41.38903 | -88.18739 | 17798 ft | 382 kts | 205° |
| 2026-05-07 22:57 | 41.36375 | -88.19880 | 18306 ft | 385 kts | 205° |
| 2026-05-07 22:57 | 41.33823 | -88.21030 | 18739 ft | 389 kts | 206° |
| 2026-05-07 22:58 | 41.31250 | -88.22190 | 19151 ft | 392 kts | 206° |
| 2026-05-07 22:58 | 41.28653 | -88.23358 | 19580 ft | 396 kts | 206° |
| 2026-05-07 22:58 | 41.26072 | -88.24516 | 20002 ft | 399 kts | 206° |
| 2026-05-07 22:58 | 41.23397 | -88.25716 | 20455 ft | 402 kts | 207° |
| 2026-05-07 22:59 | 41.20772 | -88.26899 | 20860 ft | 405 kts | 207° |
| 2026-05-07 22:59 | 41.18096 | -88.28110 | 21281 ft | 408 kts | 207° |
| 2026-05-07 22:59 | 41.15395 | -88.29333 | 21690 ft | 411 kts | 208° |
| 2026-05-07 22:59 | 41.12674 | -88.30564 | 22119 ft | 415 kts | 208° |
| 2026-05-07 23:00 | 41.09934 | -88.31803 | 22457 ft | 418 kts | 209° |
| 2026-05-07 23:00 | 41.07167 | -88.33053 | 22829 ft | 422 kts | 210° |
| 2026-05-07 23:00 | 41.04380 | -88.34312 | 23221 ft | 424 kts | 210° |
| 2026-05-07 23:00 | 41.01578 | -88.35573 | 23598 ft | 427 kts | 210° |
| 2026-05-07 23:01 | 40.98757 | -88.36841 | 23933 ft | 429 kts | 210° |
| 2026-05-07 23:01 | 40.95929 | -88.38111 | 24281 ft | 431 kts | 210° |
| 2026-05-07 23:01 | 40.93085 | -88.39383 | 24647 ft | 432 kts | 210° |
| 2026-05-07 23:01 | 40.90233 | -88.40659 | 24987 ft | 433 kts | 210° |
| 2026-05-07 23:02 | 40.87375 | -88.41938 | 25330 ft | 433 kts | 210° |
| 2026-05-07 23:02 | 40.84519 | -88.43215 | 25721 ft | 433 kts | 210° |
| 2026-05-07 23:02 | 40.81658 | -88.44494 | 26082 ft | 434 kts | 210° |
| 2026-05-07 23:02 | 40.78791 | -88.45776 | 26425 ft | 436 kts | 210° |
| 2026-05-07 23:03 | 40.75918 | -88.47062 | 26770 ft | 437 kts | 210° |
| 2026-05-07 23:03 | 40.73073 | -88.48331 | 27050 ft | 439 kts | 210° |
| 2026-05-07 23:03 | 40.70168 | -88.49627 | 27355 ft | 441 kts | 210° |
| 2026-05-07 23:03 | 40.67259 | -88.50921 | 27648 ft | 443 kts | 210° |
| 2026-05-07 23:04 | 40.64333 | -88.52221 | 27942 ft | 444 kts | 209° |
| 2026-05-07 23:04 | 40.61398 | -88.53522 | 28232 ft | 446 kts | 209° |
| 2026-05-07 23:04 | 40.58453 | -88.54825 | 28504 ft | 447 kts | 209° |
| 2026-05-07 23:04 | 40.55503 | -88.56134 | 28763 ft | 448 kts | 209° |
| 2026-05-07 23:05 | 40.52544 | -88.57446 | 29009 ft | 449 kts | 209° |
| 2026-05-07 23:05 | 40.49583 | -88.58755 | 29310 ft | 449 kts | 209° |
| 2026-05-07 23:05 | 40.46631 | -88.60061 | 29605 ft | 447 kts | 210° |
| 2026-05-07 23:05 | 40.43692 | -88.61357 | 30006 ft | 445 kts | 209° |
| 2026-05-07 23:06 | 40.40764 | -88.62643 | 30348 ft | 442 kts | 209° |
| 2026-05-07 23:06 | 40.37857 | -88.63921 | 30651 ft | 440 kts | 209° |
| 2026-05-07 23:06 | 40.34967 | -88.65224 | 30921 ft | 435 kts | 212° |
| 2026-05-07 23:06 | 40.32284 | -88.66918 | 31183 ft | 422 kts | 221° |
| 2026-05-07 23:07 | 40.29908 | -88.69074 | 31448 ft | 410 kts | 229° |
| 2026-05-07 23:07 | 40.27844 | -88.71584 | 31720 ft | 402 kts | 234° |
| 2026-05-07 23:07 | 40.25883 | -88.74131 | 31920 ft | 403 kts | 233° |
| 2026-05-07 23:08 | 40.21922 | -88.79197 | 31989 ft | 394 kts | 233° |
| 2026-05-07 23:08 | 40.18007 | -88.84176 | 31989 ft | 392 kts | 233° |
| 2026-05-07 23:09 | 40.14105 | -88.89159 | 31986 ft | 393 kts | 233° |
| 2026-05-07 23:09 | 40.10191 | -88.94148 | 31981 ft | 393 kts | 233° |
| 2026-05-07 23:10 | 40.06280 | -88.99135 | 31981 ft | 393 kts | 233° |